Time;durP1;ratioP1;P1;durP2;ratioP2;P2;SDS_P1;SDS_P2;PMS_P1;PMS_P2;Temp;Humidity;BMP_temperature;BMP_pressure;BME280_temperature;BME280_humidity;BME280_pressure;Samples;Min_cycle;Max_cycle;Signal;HPM_P1;HPM_P2
2023/12/28 00:00:00;;;;;;;;;3.00;3.00;;;;;11.21;75.92;101262.56;5039192;28;69585;-51
2023/12/28 00:02:26;;;;;;;;;5.33;4.00;;;;;11.20;76.13;101263.50;5058901;28;51961;-52
2023/12/28 00:04:51;;;;;;;;;3.33;3.33;;;;;11.21;74.94;101261.69;5057951;28;70388;-51
2023/12/28 00:07:16;;;;;;;;;3.67;3.67;;;;;11.18;76.32;101268.00;5057606;28;51849;-50
2023/12/28 00:09:42;;;;;;;;;3.00;3.00;;;;;11.19;76.22;101263.56;5059249;28;45506;-54
2023/12/28 00:12:07;;;;;;;;;4.67;4.67;;;;;11.19;75.58;101269.75;5071639;28;45457;-53
2023/12/28 00:14:32;;;;;;;;;3.00;3.00;;;;;11.20;76.09;101279.47;5080327;28;45483;-51
2023/12/28 00:16:58;;;;;;;;;0.67;0.67;;;;;11.20;75.90;101276.81;5079435;28;73453;-52
2023/12/28 00:19:23;;;;;;;;;5.33;4.00;;;;;11.21;75.33;101267.88;5078810;28;73181;-52
2023/12/28 00:21:49;;;;;;;;;4.00;2.33;;;;;11.19;77.00;101263.56;5066854;28;45412;-51
2023/12/28 00:24:15;;;;;;;;;4.33;4.33;;;;;11.17;76.66;101276.97;5079911;28;66222;-53
2023/12/28 00:26:41;;;;;;;;;4.00;4.00;;;;;11.15;78.28;101280.63;5081034;28;46264;-52
2023/12/28 00:29:06;;;;;;;;;3.67;3.33;;;;;11.16;76.55;101277.00;5061643;28;69560;-52
2023/12/28 00:31:31;;;;;;;;;5.00;5.00;;;;;11.14;78.05;101285.06;5070577;28;68322;-51
2023/12/28 00:33:56;;;;;;;;;3.00;3.00;;;;;11.15;77.16;101285.94;5065765;28;70542;-52
2023/12/28 00:36:22;;;;;;;;;3.00;3.00;;;;;11.16;77.58;101290.31;5061732;28;71939;-53
2023/12/28 00:38:47;;;;;;;;;4.67;4.67;;;;;11.16;77.11;101277.88;5073418;28;72609;-51
2023/12/28 00:41:12;;;;;;;;;3.00;3.00;;;;;11.17;77.65;101281.41;5071414;28;69400;-53
2023/12/28 00:43:38;;;;;;;;;3.67;3.00;;;;;11.18;76.33;101272.47;5060744;28;69172;-51
2023/12/28 00:46:03;;;;;;;;;4.00;2.33;;;;;11.18;78.00;101281.31;5071331;28;70973;-51
2023/12/28 00:48:28;;;;;;;;;3.67;3.67;;;;;11.18;76.81;101281.31;5066803;28;45406;-52
2023/12/28 00:50:58;;;;;;;;;4.00;4.00;;;;;11.18;77.68;101281.31;5078869;28;45264;-53
2023/12/28 00:53:24;;;;;;;;;4.00;3.67;;;;;11.18;77.36;101275.16;5061955;28;45316;-51
2023/12/28 00:55:50;;;;;;;;;6.00;3.33;;;;;11.19;78.05;101280.41;5072278;28;45804;-51
2023/12/28 00:58:15;;;;;;;;;4.00;4.00;;;;;11.18;77.33;101270.69;5065650;28;45356;-49
2023/12/28 01:00:40;;;;;;;;;3.00;3.00;;;;;11.19;77.41;101267.09;5080584;28;45356;-52
2023/12/28 01:03:06;;;;;;;;;3.00;3.00;;;;;11.19;77.84;101282.22;5060222;28;66350;-50
2023/12/28 01:05:31;;;;;;;;;2.00;2.00;;;;;11.20;78.40;101284.78;5060893;28;46010;-51
2023/12/28 01:07:56;;;;;;;;;1.00;1.00;;;;;11.19;77.77;101263.56;5059456;28;70779;-53
2023/12/28 01:10:22;;;;;;;;;2.67;2.67;;;;;11.19;78.51;101274.22;5060418;28;57574;-53
2023/12/28 01:12:47;;;;;;;;;6.67;2.33;;;;;11.19;78.66;101267.09;5060882;28;45277;-52
2023/12/28 01:15:12;;;;;;;;;4.33;4.00;;;;;11.18;78.14;101277.81;5059122;28;55259;-52
2023/12/28 01:17:38;;;;;;;;;2.67;2.00;;;;;11.18;78.20;101267.16;5065721;28;69917;-49
2023/12/28 01:20:04;;;;;;;;;2.00;2.00;;;;;11.18;78.51;101275.16;5079820;28;45695;-50
2023/12/28 01:22:29;;;;;;;;;3.00;3.00;;;;;11.20;78.35;101278.63;5078622;28;45385;-50
2023/12/28 01:24:54;;;;;;;;;2.33;2.00;;;;;11.20;78.58;101281.28;5050134;28;77464;-48
2023/12/28 01:27:20;;;;;;;;;1.00;1.00;;;;;11.19;79.21;101283.06;5051269;28;71712;-52
2023/12/28 01:29:45;;;;;;;;;6.67;3.33;;;;;11.18;79.11;101289.31;5080188;28;45474;-52
2023/12/28 01:32:10;;;;;;;;;2.00;2.00;;;;;11.17;79.24;101290.28;5075782;28;48825;-52
2023/12/28 01:34:35;;;;;;;;;4.67;3.33;;;;;11.17;79.10;101279.63;5068830;28;68565;-52
2023/12/28 01:37:01;;;;;;;;;5.00;2.67;;;;;11.16;79.57;101269.91;5074910;28;72186;-50
2023/12/28 01:39:26;;;;;;;;;4.33;3.33;;;;;11.14;79.98;101274.41;5035923;28;45535;-52
2023/12/28 01:41:51;;;;;;;;;2.00;2.00;;;;;11.12;80.16;101286.06;5075165;28;65719;-53
2023/12/28 01:44:17;;;;;;;;;3.33;3.33;;;;;11.12;79.30;101292.28;5058649;28;69720;-51
2023/12/28 01:46:42;;;;;;;;;1.33;1.33;;;;;11.09;79.69;101297.72;5042465;28;68615;-50
2023/12/28 01:49:08;;;;;;;;;3.00;2.33;;;;;11.09;79.69;101295.94;5058727;28;69609;-51
2023/12/28 01:51:33;;;;;;;;;2.00;2.00;;;;;11.10;80.14;101299.44;5075969;28;70570;-49
2023/12/28 01:53:59;;;;;;;;;3.00;3.00;;;;;11.07;79.86;101312.91;5060935;28;46086;-52
2023/12/28 01:56:24;;;;;;;;;2.00;2.00;;;;;11.07;80.24;101315.56;5079346;28;45513;-51
2023/12/28 01:58:52;;;;;;;;;3.33;3.33;;;;;11.07;80.88;101318.22;5067556;28;65774;-50
2023/12/28 02:01:18;;;;;;;;;2.67;2.67;;;;;11.07;80.25;101315.56;5079035;28;45651;-53
2023/12/28 02:03:43;;;;;;;;;2.00;2.00;;;;;11.07;80.37;101323.56;5079266;28;45597;-53
2023/12/28 02:06:08;;;;;;;;;3.33;3.00;;;;;11.08;80.27;101322.59;5060310;28;73065;-52
2023/12/28 02:08:34;;;;;;;;;4.00;3.00;;;;;11.06;80.49;101317.34;5041176;28;69437;-52
2023/12/28 02:10:59;;;;;;;;;3.67;2.67;;;;;11.06;79.99;101321.81;5076156;28;45507;-51
2023/12/28 02:13:25;;;;;;;;;4.00;4.00;;;;;11.04;80.19;101321.91;5078576;28;69821;-50
2023/12/28 02:15:54;;;;;;;;;5.00;4.00;;;;;11.03;80.91;101333.47;5060746;28;65001;-53
2023/12/28 02:18:26;;;;;;;;;3.00;3.00;;;;;11.00;80.81;101312.31;5049676;28;45380;-51
2023/12/28 02:20:52;;;;;;;;;6.00;3.00;;;;;10.99;80.55;101331.88;5063948;28;45468;-51
2023/12/28 02:23:17;;;;;;;;;4.00;2.00;;;;;10.99;80.89;101336.31;5077208;28;75583;-50
2023/12/28 02:25:43;;;;;;;;;2.00;2.00;;;;;10.98;80.52;101329.28;5074861;28;45461;-52
2023/12/28 02:28:08;;;;;;;;;3.33;3.33;;;;;10.95;80.98;101327.63;5067501;28;69256;-52
2023/12/28 02:30:34;;;;;;;;;4.67;3.67;;;;;10.93;83.04;101325.00;5067889;28;55029;-52
2023/12/28 02:33:29;;;;;;;;;2.33;2.33;;;;;10.94;80.08;101339.19;5077567;28;68666;-52
2023/12/28 02:35:57;;;;;;;;;2.33;2.33;;;;;10.92;81.59;101333.06;5068468;28;45625;-50
2023/12/28 02:38:24;;;;;;;;;3.67;2.00;;;;;10.92;81.25;101336.59;5064434;28;45403;-50
2023/12/28 02:40:49;;;;;;;;;2.33;2.33;;;;;10.89;81.58;101328.72;5058174;28;45376;-52
2023/12/28 02:43:15;;;;;;;;;3.00;2.33;;;;;10.88;81.21;101328.81;5058336;28;46885;-51
2023/12/28 02:45:40;;;;;;;;;3.33;3.33;;;;;10.87;81.64;101332.38;5040308;28;56914;-51
2023/12/28 02:48:06;;;;;;;;;1.00;1.00;;;;;10.87;83.04;101327.06;5058347;28;53828;-52
2023/12/28 02:50:32;;;;;;;;;2.00;1.67;;;;;10.86;81.57;101333.31;5068905;28;45430;-53
2023/12/28 02:52:58;;;;;;;;;2.00;2.00;;;;;10.86;82.12;101326.22;5075771;28;46179;-52
2023/12/28 02:55:24;;;;;;;;;3.67;2.00;;;;;10.87;81.68;101325.28;5059463;28;45521;-52
2023/12/28 02:57:50;;;;;;;;;3.67;2.67;;;;;10.87;82.06;101322.63;5061884;28;45362;-51
2023/12/28 03:00:16;;;;;;;;;3.00;3.00;;;;;10.86;83.72;101309.34;5049733;28;45386;-52
2023/12/28 03:02:41;;;;;;;;;1.00;1.00;;;;;10.86;83.59;101314.69;5058764;28;46206;-52
2023/12/28 03:05:07;;;;;;;;;4.00;3.00;;;;;10.86;84.14;101320.00;5078017;28;45315;-53
2023/12/28 03:07:33;;;;;;;;;4.00;3.00;;;;;10.86;83.40;101312.00;5076740;28;45311;-51
2023/12/28 03:09:58;;;;;;;;;2.00;2.00;;;;;10.85;84.32;101305.84;5058999;28;45344;-51
2023/12/28 03:12:24;;;;;;;;;3.00;2.00;;;;;10.86;83.38;101309.34;5076610;28;66025;-51
2023/12/28 03:14:49;;;;;;;;;2.67;2.67;;;;;10.86;82.89;101314.69;5077974;28;49002;-50
2023/12/28 03:17:15;;;;;;;;;1.67;1.67;;;;;10.87;83.29;101321.75;5078198;28;45464;-52
2023/12/28 03:19:40;;;;;;;;;2.33;2.00;;;;;10.87;82.32;101330.59;5078534;28;45296;-49
2023/12/28 03:22:06;;;;;;;;;1.67;1.67;;;;;10.86;83.24;101323.53;5075955;28;46015;-53
2023/12/28 03:24:31;;;;;;;;;2.00;2.00;;;;;10.86;84.51;101331.53;5059934;28;45491;-51
2023/12/28 03:26:56;;;;;;;;;1.00;1.00;;;;;10.87;83.20;101330.59;5076845;28;69138;-51
2023/12/28 03:29:22;;;;;;;;;2.00;2.00;;;;;10.85;83.49;101329.78;5060273;28;70713;-53
2023/12/28 03:31:47;;;;;;;;;3.00;2.00;;;;;10.86;83.95;101330.66;5073371;28;74115;-50
2023/12/28 03:34:13;;;;;;;;;3.67;3.00;;;;;10.85;83.23;101326.28;5056146;28;72978;-49
2023/12/28 03:36:38;;;;;;;;;2.67;2.67;;;;;10.84;84.76;101321.88;5075145;28;45367;-49
2023/12/28 03:39:05;;;;;;;;;4.00;2.33;;;;;10.81;83.77;101314.91;5071653;28;45469;-52
2023/12/28 03:41:30;;;;;;;;;2.00;2.00;;;;;10.80;85.25;101313.16;5064374;28;46253;-52
2023/12/28 03:43:55;;;;;;;;;2.00;2.00;;;;;10.77;84.73;101305.31;5056479;28;67415;-51
2023/12/28 03:46:21;;;;;;;;;0.00;0.00;;;;;10.76;83.84;101309.75;5058746;28;62904;-51
2023/12/28 03:48:47;;;;;;;;;2.00;2.00;;;;;10.74;85.37;101310.75;5060866;28;67849;-53
2023/12/28 03:51:15;;;;;;;;;2.00;2.00;;;;;10.72;84.94;101310.81;5064484;28;46212;-52
2023/12/28 03:53:41;;;;;;;;;2.00;2.00;;;;;10.70;85.03;101310.03;5080602;28;45641;-50
2023/12/28 03:56:07;;;;;;;;;2.00;2.00;;;;;10.68;85.29;101311.03;5080631;28;45448;-49
2023/12/28 03:58:32;;;;;;;;;3.00;1.00;;;;;10.67;84.86;101306.63;5063677;28;45461;-50
2023/12/28 04:00:57;;;;;;;;;5.33;2.00;;;;;10.64;85.17;101298.75;5060951;28;75679;-49
2023/12/28 04:03:23;;;;;;;;;4.00;4.00;;;;;10.61;85.85;101305.09;5080271;28;45413;-51
2023/12/28 04:05:48;;;;;;;;;2.67;2.67;;;;;10.61;85.77;101306.88;5079021;28;69453;-54
2023/12/28 04:08:14;;;;;;;;;2.00;2.00;;;;;10.58;85.33;101306.06;5081265;28;45280;-52
2023/12/28 04:10:39;;;;;;;;;4.00;3.00;;;;;10.58;85.20;101316.72;5080928;28;45815;-52
2023/12/28 04:13:04;;;;;;;;;4.00;2.00;;;;;10.56;85.44;101312.41;5079892;28;61808;-52
2023/12/28 04:15:30;;;;;;;;;3.00;3.00;;;;;10.55;86.23;101313.34;5079345;28;68980;-52
2023/12/28 04:17:56;;;;;;;;;3.33;3.00;;;;;10.53;87.25;101317.84;5062288;28;45330;-51
2023/12/28 04:20:21;;;;;;;;;1.67;1.67;;;;;10.53;85.34;101318.72;5080034;28;45467;-49
2023/12/28 04:22:47;;;;;;;;;2.33;2.33;;;;;10.53;85.55;101304.53;5080839;28;45776;-49
2023/12/28 04:25:12;;;;;;;;;1.67;1.67;;;;;10.51;87.30;101311.75;5077371;28;45359;-52
2023/12/28 04:27:38;;;;;;;;;3.00;1.67;;;;;10.50;86.87;101300.22;5080121;28;45383;-49
2023/12/28 04:30:07;;;;;;;;;1.67;1.67;;;;;10.51;85.97;101311.75;5080558;28;45380;-53
2023/12/28 04:32:33;;;;;;;;;2.67;2.67;;;;;10.48;86.23;101310.06;5069913;28;45410;-52
2023/12/28 04:34:58;;;;;;;;;4.33;2.33;;;;;10.49;86.30;101305.59;5077660;28;45383;-50
2023/12/28 04:37:25;;;;;;;;;2.00;2.00;;;;;10.48;86.27;101304.75;5073012;28;69835;-53
2023/12/28 04:39:51;;;;;;;;;3.67;2.67;;;;;10.48;86.05;101314.50;5073211;28;46144;-50
2023/12/28 04:42:16;;;;;;;;;1.00;1.00;;;;;10.46;86.44;101317.25;5066957;28;71478;-53
2023/12/28 04:44:41;;;;;;;;;1.00;1.00;;;;;10.45;86.43;101304.88;5067296;28;48601;-52
2023/12/28 04:47:07;;;;;;;;;2.00;2.00;;;;;10.47;86.80;101307.44;5058929;28;67891;-51
2023/12/28 04:49:32;;;;;;;;;2.00;2.00;;;;;10.47;86.67;101307.44;5051934;28;74149;-49
2023/12/28 04:51:57;;;;;;;;;2.00;1.00;;;;;10.48;86.73;101306.53;5078637;28;68321;-53
2023/12/28 04:54:23;;;;;;;;;3.00;3.00;;;;;10.46;86.67;101298.63;5080692;28;45468;-51
2023/12/28 04:56:48;;;;;;;;;3.00;2.00;;;;;10.47;86.42;101297.69;5041909;28;70218;-53
2023/12/28 04:59:14;;;;;;;;;2.67;1.00;;;;;10.47;86.21;101303.03;5058604;28;45441;-51
2023/12/28 05:01:43;;;;;;;;;2.67;1.33;;;;;10.48;86.76;101303.88;5059265;28;72191;-49
2023/12/28 05:04:09;;;;;;;;;2.33;1.67;;;;;10.48;86.83;101311.84;5059637;28;45445;-52
2023/12/28 05:06:34;;;;;;;;;2.33;1.00;;;;;10.49;86.20;101309.13;5059969;28;45659;-50
2023/12/28 05:08:59;;;;;;;;;1.67;1.67;;;;;10.49;86.25;101308.28;5059460;28;76428;-52
2023/12/28 05:11:25;;;;;;;;;3.00;1.67;;;;;10.50;86.67;101307.34;5061088;28;45513;-51
2023/12/28 05:13:50;;;;;;;;;2.00;2.00;;;;;10.50;86.27;101307.34;5059576;28;69240;-51
2023/12/28 05:16:15;;;;;;;;;2.67;1.00;;;;;10.49;86.52;101316.25;5060342;28;62151;-53
2023/12/28 05:18:41;;;;;;;;;1.67;1.67;;;;;10.48;86.42;101312.75;5058841;28;72886;-51
2023/12/28 05:21:06;;;;;;;;;2.00;2.00;;;;;10.48;87.34;101323.38;5066245;28;65518;-52
2023/12/28 05:23:31;;;;;;;;;2.00;2.00;;;;;10.48;86.48;101322.50;5080349;28;45621;-53
2023/12/28 05:25:57;;;;;;;;;1.67;1.67;;;;;10.47;86.60;101316.31;5078748;28;60826;-51
2023/12/28 05:28:22;;;;;;;;;2.33;2.33;;;;;10.46;87.60;101317.25;5069037;28;46955;-51
2023/12/28 05:30:47;;;;;;;;;2.00;2.00;;;;;10.45;86.93;101320.81;5070922;28;72047;-53
2023/12/28 05:33:13;;;;;;;;;2.33;1.00;;;;;10.41;86.91;101309.44;5072874;28;59143;-52
2023/12/28 05:35:38;;;;;;;;;3.00;2.00;;;;;10.39;87.12;101316.63;5074487;28;45340;-51
2023/12/28 05:38:04;;;;;;;;;3.00;1.00;;;;;10.38;86.80;101319.38;5071582;28;55883;-51
2023/12/28 05:40:30;;;;;;;;;1.33;1.00;;;;;10.37;86.58;101312.31;5079731;28;45292;-51
2023/12/28 05:42:55;;;;;;;;;2.00;1.33;;;;;10.35;87.08;101308.78;5079504;28;45438;-52
2023/12/28 05:45:20;;;;;;;;;1.33;1.33;;;;;10.33;87.61;101313.34;5059935;28;66577;-51
2023/12/28 05:47:45;;;;;;;;;4.33;2.33;;;;;10.31;87.15;101316.06;5058584;28;62679;-52
2023/12/28 05:50:11;;;;;;;;;4.00;2.00;;;;;10.29;86.94;101315.25;5061391;28;45731;-50
2023/12/28 05:52:36;;;;;;;;;1.00;1.00;;;;;10.27;86.85;101322.41;5060327;28;45415;-50
2023/12/28 05:55:02;;;;;;;;;2.00;2.00;;;;;10.23;87.20;101326.13;5058927;28;61841;-52
2023/12/28 05:57:29;;;;;;;;;2.00;1.00;;;;;10.23;87.02;101328.78;5068436;28;46261;-53
2023/12/28 05:59:55;;;;;;;;;1.00;1.00;;;;;10.20;87.62;101336.88;5059797;28;45447;-50
2023/12/28 06:02:20;;;;;;;;;2.33;2.33;;;;;10.17;87.82;101329.91;5079581;28;45314;-52
2023/12/28 06:04:46;;;;;;;;;4.67;3.00;;;;;10.15;88.43;101333.53;5060279;28;61540;-52
2023/12/28 06:07:11;;;;;;;;;1.33;1.00;;;;;10.12;88.94;101328.31;5057663;28;71768;-50
2023/12/28 06:09:38;;;;;;;;;3.33;2.67;;;;;10.10;89.10;101337.25;5028253;28;74293;-51
2023/12/28 06:12:04;;;;;;;;;1.00;1.00;;;;;10.08;87.83;101341.75;5077723;28;45679;-52
2023/12/28 06:14:30;;;;;;;;;2.00;1.67;;;;;10.07;88.08;101332.03;5078104;28;45559;-50
2023/12/28 06:16:55;;;;;;;;;1.00;1.00;;;;;10.05;88.48;101344.53;5076771;28;46248;-52
2023/12/28 06:19:21;;;;;;;;;2.00;2.00;;;;;10.03;87.93;101341.06;5062616;28;45382;-49
2023/12/28 06:21:47;;;;;;;;;1.33;1.33;;;;;10.03;88.29;101334.91;5078831;28;45438;-52
2023/12/28 06:24:12;;;;;;;;;2.00;1.33;;;;;10.02;88.57;101334.00;5078447;28;45537;-53
2023/12/28 06:26:41;;;;;;;;;1.00;1.00;;;;;10.01;89.20;101329.66;5075169;28;65234;-53
2023/12/28 06:29:07;;;;;;;;;2.00;2.00;;;;;10.00;88.42;101327.03;5060616;28;45464;-49
2023/12/28 06:31:35;;;;;;;;;2.33;2.00;;;;;9.99;88.74;101322.66;5058618;28;45422;-49
2023/12/28 06:34:01;;;;;;;;;3.67;2.00;;;;;9.98;89.19;101320.91;5071799;28;45438;-51
2023/12/28 06:36:26;;;;;;;;;2.67;2.67;;;;;9.98;88.89;101337.72;5071355;28;46190;-51
2023/12/28 06:38:52;;;;;;;;;1.33;1.33;;;;;9.96;89.13;101334.28;5074305;28;72310;-50
2023/12/28 06:41:17;;;;;;;;;1.00;1.00;;;;;9.96;88.95;101355.53;5049026;28;62363;-52
2023/12/28 06:43:42;;;;;;;;;2.00;2.00;;;;;9.96;89.31;101338.69;5076103;28;62746;-52
2023/12/28 06:46:08;;;;;;;;;1.33;1.33;;;;;9.95;89.22;101337.84;5066027;28;70229;-50
2023/12/28 06:48:33;;;;;;;;;4.00;2.67;;;;;9.95;88.96;101343.16;5059906;28;45341;-48
2023/12/28 06:50:58;;;;;;;;;2.33;1.33;;;;;9.96;88.87;101338.69;5060434;28;62186;-50
2023/12/28 06:53:24;;;;;;;;;2.00;1.67;;;;;9.94;90.64;101341.44;5077754;28;45626;-51
2023/12/28 06:55:49;;;;;;;;;4.00;2.00;;;;;9.93;90.09;101337.91;5048070;28;60914;-53
2023/12/28 06:58:14;;;;;;;;;0.00;0.00;;;;;9.93;91.04;101342.34;5054162;28;51487;-51
2023/12/28 07:00:41;;;;;;;;;2.00;2.00;;;;;9.93;89.88;101335.25;5059207;28;49818;-51
2023/12/28 07:03:07;;;;;;;;;2.33;1.33;;;;;9.94;90.66;101349.41;5072723;28;45414;-52
2023/12/28 07:05:32;;;;;;;;;3.00;1.00;;;;;9.92;91.11;101344.16;5057550;28;46265;-49
2023/12/28 07:07:58;;;;;;;;;1.00;1.00;;;;;9.91;91.20;101353.03;5059192;28;70791;-53
2023/12/28 07:10:23;;;;;;;;;1.33;1.00;;;;;9.91;90.84;101368.97;5077783;28;68468;-51
2023/12/28 07:12:49;;;;;;;;;2.67;1.33;;;;;9.91;91.59;101362.81;5063886;28;69285;-52
2023/12/28 07:15:14;;;;;;;;;3.67;2.00;;;;;9.88;91.45;101366.44;5078535;28;45999;-51
2023/12/28 07:17:40;;;;;;;;;2.00;2.00;;;;;9.86;91.43;101362.13;5073741;28;45335;-49
2023/12/28 07:20:06;;;;;;;;;2.33;1.00;;;;;9.85;92.07;101361.25;5059913;28;45778;-51
2023/12/28 07:22:31;;;;;;;;;2.00;0.67;;;;;9.83;91.92;101357.78;5046754;28;45461;-50
2023/12/28 07:24:56;;;;;;;;;3.00;1.33;;;;;9.82;91.75;101363.16;5050058;28;62979;-49
2023/12/28 07:27:21;;;;;;;;;2.00;2.00;;;;;9.80;92.80;101365.84;5076944;28;65211;-49
2023/12/28 07:29:47;;;;;;;;;3.00;2.00;;;;;9.80;92.34;101365.00;5060632;28;69082;-49
2023/12/28 07:32:14;;;;;;;;;1.67;1.67;;;;;9.81;92.36;101364.94;5073556;28;45676;-52
2023/12/28 07:34:39;;;;;;;;;3.00;2.00;;;;;9.81;92.45;101372.06;5064039;28;45458;-50
2023/12/28 07:37:05;;;;;;;;;1.33;1.33;;;;;9.81;93.44;101370.25;5075538;28;45704;-51
2023/12/28 07:39:30;;;;;;;;;3.67;2.67;;;;;9.84;93.94;101372.81;5061470;28;45666;-49
2023/12/28 07:41:55;;;;;;;;;2.67;2.00;;;;;9.86;92.56;101370.09;5059740;28;67209;-51
2023/12/28 07:44:21;;;;;;;;;2.33;1.33;;;;;9.87;92.18;101375.34;5061309;28;73455;-52
2023/12/28 07:46:46;;;;;;;;;2.67;1.33;;;;;9.86;92.30;101376.25;5044159;28;72728;-52
2023/12/28 07:49:11;;;;;;;;;3.33;2.00;;;;;9.85;91.89;101363.91;5061402;28;60304;-53
2023/12/28 07:51:36;;;;;;;;;3.67;3.33;;;;;9.86;91.75;101378.91;5077348;28;45220;-53
2023/12/28 07:54:02;;;;;;;;;2.00;2.00;;;;;9.86;92.18;101375.41;5060894;28;71270;-50
2023/12/28 07:56:27;;;;;;;;;2.67;2.67;;;;;9.87;92.10;101385.97;5064789;28;45763;-52
2023/12/28 07:58:53;;;;;;;;;2.00;2.00;;;;;9.87;92.78;101393.09;5039166;28;50353;-51
2023/12/28 08:01:19;;;;;;;;;7.00;5.00;;;;;9.87;92.42;101388.63;5038098;28;45544;-53
2023/12/28 08:03:44;;;;;;;;;3.00;3.00;;;;;9.89;92.17;101397.38;5039462;28;46490;-49
2023/12/28 08:06:12;;;;;;;;;3.00;2.33;;;;;9.91;92.82;101400.03;5037784;28;71774;-53
2023/12/28 08:08:37;;;;;;;;;2.00;2.00;;;;;9.93;91.72;101404.34;5040997;28;45413;-52
2023/12/28 08:11:03;;;;;;;;;5.00;2.00;;;;;9.95;91.67;101406.94;5038822;28;45331;-52
2023/12/28 08:13:28;;;;;;;;;4.67;2.00;;;;;9.99;91.64;101402.38;5039747;28;46730;-52
2023/12/28 08:15:54;;;;;;;;;5.00;2.00;;;;;10.00;91.15;101399.66;5033739;28;73218;-53
2023/12/28 08:18:19;;;;;;;;;2.67;2.00;;;;;10.03;91.62;101402.19;5020261;28;60661;-52
2023/12/28 08:20:44;;;;;;;;;2.00;2.00;;;;;10.05;91.69;101408.34;5038684;28;45559;-53
2023/12/28 08:23:10;;;;;;;;;3.33;2.33;;;;;10.11;91.81;101409.88;5028427;28;46139;-52
2023/12/28 08:25:35;;;;;;;;;2.00;2.00;;;;;10.14;91.74;101409.75;5036532;28;45662;-52
2023/12/28 08:28:00;;;;;;;;;2.33;2.33;;;;;10.15;91.34;101402.66;5027879;28;66373;-50
2023/12/28 08:30:27;;;;;;;;;2.67;1.33;;;;;10.16;91.90;101405.25;5039618;28;65573;-53
2023/12/28 08:32:52;;;;;;;;;4.33;2.00;;;;;10.19;91.33;101397.16;5037528;28;47244;-51
2023/12/28 08:35:18;;;;;;;;;1.67;1.00;;;;;10.21;91.41;101390.00;5034775;28;45383;-51
2023/12/28 08:37:43;;;;;;;;;3.00;3.00;;;;;10.25;91.11;101399.56;5028871;28;64505;-50
2023/12/28 08:40:09;;;;;;;;;5.00;2.00;;;;;10.26;91.86;101393.34;5022556;28;45377;-51
2023/12/28 08:42:34;;;;;;;;;1.00;1.00;;;;;10.27;91.37;101407.47;5020261;28;46217;-51
2023/12/28 08:44:59;;;;;;;;;3.00;2.00;;;;;10.26;91.33;101403.13;5018683;28;69433;-52
2023/12/28 08:47:25;;;;;;;;;2.00;2.00;;;;;10.26;90.93;101405.78;5020122;28;69430;-51
2023/12/28 08:49:50;;;;;;;;;3.67;3.00;;;;;10.28;90.70;101403.91;5033023;28;45543;-49
2023/12/28 08:52:15;;;;;;;;;2.00;1.33;;;;;10.28;91.01;101406.56;5039228;28;70002;-51
2023/12/28 08:54:41;;;;;;;;;4.00;3.00;;;;;10.30;90.59;101411.81;5039440;28;54608;-51
2023/12/28 08:57:06;;;;;;;;;1.00;1.00;;;;;10.33;90.71;101412.56;5034517;28;45480;-51
2023/12/28 08:59:36;;;;;;;;;2.00;2.00;;;;;10.37;90.72;101418.69;5068323;28;45552;-52
2023/12/28 09:02:01;;;;;;;;;1.33;1.00;;;;;10.42;90.87;101416.69;5079051;28;45409;-49
2023/12/28 09:04:26;;;;;;;;;1.67;1.67;;;;;10.47;90.62;101420.03;5079053;28;45346;-49
2023/12/28 09:06:52;;;;;;;;;1.67;1.67;;;;;10.52;90.48;101427.81;5079897;28;45367;-51
2023/12/28 09:09:18;;;;;;;;;1.00;1.00;;;;;10.62;90.11;101428.34;5078675;28;45394;-52
2023/12/28 09:11:43;;;;;;;;;3.33;2.00;;;;;10.69;90.14;101436.00;5079235;28;46747;-53
2023/12/28 09:14:08;;;;;;;;;3.33;1.00;;;;;10.77;89.77;101430.38;5076819;28;45560;-49
2023/12/28 09:16:35;;;;;;;;;4.00;1.00;;;;;10.88;89.29;101432.59;5070276;28;56490;-50
2023/12/28 09:19:00;;;;;;;;;3.00;3.00;;;;;11.00;89.30;101440.09;5078740;28;45495;-49
2023/12/28 09:21:26;;;;;;;;;3.00;1.67;;;;;11.18;88.76;101442.91;5079633;28;45399;-53
2023/12/28 09:23:51;;;;;;;;;3.00;1.00;;;;;11.27;88.32;101433.66;5078515;28;45430;-53
2023/12/28 09:26:16;;;;;;;;;1.00;1.00;;;;;11.35;87.81;101426.19;5078372;28;45748;-53
2023/12/28 09:28:43;;;;;;;;;3.00;1.00;;;;;11.45;87.27;101432.00;5076592;28;45426;-51
2023/12/28 09:31:09;;;;;;;;;1.33;1.33;;;;;11.59;87.26;101445.59;5066086;28;72283;-51
2023/12/28 09:33:34;;;;;;;;;2.00;1.00;;;;;11.71;86.84;101438.84;5078814;28;62968;-52
2023/12/28 09:35:59;;;;;;;;;0.00;0.00;;;;;11.78;86.56;101436.75;5078766;28;61217;-49
2023/12/28 09:38:26;;;;;;;;;2.33;2.33;;;;;11.84;86.34;101436.50;5066118;28;45510;-52
2023/12/28 09:40:53;;;;;;;;;3.33;1.00;;;;;11.90;86.10;101446.84;5069965;28;47057;-53
2023/12/28 09:43:24;;;;;;;;;1.00;1.00;;;;;11.95;85.35;101444.88;5072601;28;45386;-50
2023/12/28 09:45:50;;;;;;;;;2.00;1.00;;;;;11.94;84.99;101451.09;5051276;28;45395;-51
2023/12/28 09:48:20;;;;;;;;;1.00;1.00;;;;;11.86;85.20;101451.47;5066902;28;45639;-52
2023/12/28 09:50:49;;;;;;;;;1.00;1.00;;;;;11.79;85.23;101463.34;5078214;28;46380;-51
2023/12/28 09:53:14;;;;;;;;;2.00;2.00;;;;;11.73;85.73;101451.16;5078472;28;45816;-51
2023/12/28 09:55:40;;;;;;;;;2.67;2.67;;;;;11.70;86.03;101453.94;5069124;28;45945;-50
2023/12/28 09:58:05;;;;;;;;;2.00;2.00;;;;;11.74;86.26;101449.34;5072038;28;45405;-53
2023/12/28 10:00:31;;;;;;;;;2.33;2.00;;;;;11.95;85.97;101444.00;5079273;28;47179;-50
2023/12/28 10:02:56;;;;;;;;;2.00;1.00;;;;;12.43;85.13;101440.00;5059965;28;45194;-53
2023/12/28 10:05:22;;;;;;;;;2.33;2.00;;;;;13.24;82.15;101436.94;5058310;28;65299;-53
2023/12/28 10:07:47;;;;;;;;;2.00;2.00;;;;;14.11;79.44;101435.94;5063269;28;68182;-52
2023/12/28 10:10:13;;;;;;;;;3.00;3.00;;;;;14.69;75.48;101430.97;5076860;28;74231;-49
2023/12/28 10:12:38;;;;;;;;;3.00;2.00;;;;;15.14;76.14;101447.16;5078992;28;45265;-52
2023/12/28 10:15:06;;;;;;;;;1.00;1.00;;;;;15.78;73.11;101428.13;5078027;28;66817;-53
2023/12/28 10:17:35;;;;;;;;;3.67;3.67;;;;;16.26;69.35;101417.97;5077350;28;45493;-51
2023/12/28 10:20:04;;;;;;;;;2.00;2.00;;;;;16.67;69.15;101421.59;5078504;28;46192;-52
2023/12/28 10:22:31;;;;;;;;;4.00;3.00;;;;;17.06;67.83;101419.06;5061690;28;45475;-52
2023/12/28 10:24:57;;;;;;;;;3.00;2.00;;;;;17.12;67.17;101410.59;5039886;28;45499;-52
2023/12/28 10:27:23;;;;;;;;;2.00;2.00;;;;;16.87;67.10;101407.69;5078567;28;45351;-53
2023/12/28 10:29:48;;;;;;;;;2.33;2.00;;;;;16.92;69.01;101410.13;5046474;28;75037;-51
2023/12/28 10:32:14;;;;;;;;;1.67;1.33;;;;;17.24;66.87;101404.38;5064329;28;45388;-54
2023/12/28 10:34:39;;;;;;;;;1.00;1.00;;;;;17.60;65.03;101416.22;5048968;28;69316;-52
2023/12/28 10:37:05;;;;;;;;;0.67;0.67;;;;;17.93;62.73;101411.28;5073816;28;45415;-53
2023/12/28 10:39:32;;;;;;;;;1.67;1.00;;;;;18.25;63.27;101411.66;5058481;28;45367;-54
2023/12/28 10:42:00;;;;;;;;;1.00;1.00;;;;;18.35;61.89;101415.41;5059392;28;45932;-55
2023/12/28 10:44:27;;;;;;;;;1.25;1.25;;;;;18.15;59.98;101424.91;5057969;28;45474;-51
2023/12/28 10:46:57;;;;;;;;;1.50;1.50;;;;;17.77;61.38;101424.91;5057623;28;45574;-53
2023/12/28 10:49:25;;;;;;;;;2.67;2.67;;;;;17.03;58.05;101417.44;5059194;28;46753;-54
2023/12/28 10:51:52;;;;;;;;;1.67;1.67;;;;;16.57;62.60;101426.72;5064077;28;45318;-53
2023/12/28 10:54:37;;;;;;;;;2.33;1.67;;;;;16.21;64.47;101415.56;5078643;28;45430;-54
2023/12/28 10:57:11;;;;;;;;;2.00;1.67;;;;;16.00;63.08;101409.75;5072925;28;45478;-54
2023/12/28 10:59:59;;;;;;;;;2.00;1.00;;;;;15.73;63.62;101406.09;5061907;28;45645;-53
2023/12/28 11:02:28;;;;;;;;;3.00;2.00;;;;;15.50;65.25;101406.56;5059910;28;45484;-52
2023/12/28 11:04:55;;;;;;;;;1.33;1.00;;;;;15.19;64.33;101394.16;5078019;28;45420;-54
2023/12/28 11:07:21;;;;;;;;;2.67;2.67;;;;;14.97;64.81;101398.09;5077596;28;45527;-52
2023/12/28 11:09:47;;;;;;;;;2.00;0.67;;;;;15.15;66.17;101400.66;5059326;28;63315;-53
2023/12/28 11:12:13;;;;;;;;;2.00;2.00;;;;;15.51;65.04;101384.16;5076256;28;66896;-52
2023/12/28 11:14:42;;;;;;;;;2.67;1.67;;;;;15.84;63.71;101390.22;5060318;28;45453;-53
2023/12/28 11:17:09;;;;;;;;;0.00;0.00;;;;;16.03;63.84;101379.19;5076483;28;45311;-55
2023/12/28 11:19:35;;;;;;;;;2.33;2.00;;;;;16.34;63.29;101391.47;5060418;28;45419;-52